This is the latest recevied weather packets stored in our database for station/object M0XZS-2. If no packets are shown the sender has not sent any weather packets the latest 10 day(s).
| Time | Temp. | Humidity | Pressure | Rain* | Wind** | Luminosity | Snow |
|---|---|---|---|---|---|---|---|
| 1777735358 | 31.11° C | 27% | 1016.6 hPa | - | - | - | - |
| 1777734458 | 31.11° C | 27% | 1016.8 hPa | - | - | - | - |
| 1777733558 | 31.11° C | 27% | 1016.9 hPa | - | - | - | - |
| 1777732658 | 31.67° C | 27% | 1016.8 hPa | - | - | - | - |
| 1777731758 | 32.22° C | 25% | 1016.8 hPa | - | - | - | - |
| 1777730858 | 31.11° C | 28% | 1017.1 hPa | - | - | - | - |
| 1777729958 | 30.56° C | 28% | 1017.1 hPa | - | - | - | - |
| 1777729058 | 30° C | 28% | 1017.2 hPa | - | - | - | - |
| 1777728158 | 29.44° C | 29% | 1017.5 hPa | - | - | - | - |
| 1777727258 | 29.44° C | 28% | 1017.5 hPa | - | - | - | - |
| 1777726358 | 28.89° C | 30% | 1017.5 hPa | - | - | - | - |
| 1777725458 | 28.89° C | 30% | 1017.7 hPa | - | - | - | - |
| 1777724558 | 28.89° C | 30% | 1017.7 hPa | - | - | - | - |
| 1777723658 | 28.89° C | 30% | 1017.6 hPa | - | - | - | - |
| 1777722758 | 28.33° C | 32% | 1017.5 hPa | - | - | - | - |
| 1777721858 | 27.22° C | 32% | 1017.5 hPa | - | - | - | - |
| 1777720957 | 26.67° C | 33% | 1017.7 hPa | - | - | - | - |
| 1777720058 | 26.67° C | 33% | 1017.7 hPa | - | - | - | - |
| 1777719157 | 26.11° C | 34% | 1017.6 hPa | - | - | - | - |
| 1777718257 | 26.67° C | 34% | 1017.7 hPa | - | - | - | - |
| 1777717357 | 26.11° C | 34% | 1017.6 hPa | - | - | - | - |
| 1777716456 | 25° C | 35% | 1017.9 hPa | - | - | - | - |
| 1777715556 | 24.44° C | 35% | 1018.1 hPa | - | - | - | - |
| 1777714656 | 23.33° C | 36% | 1018.1 hPa | - | - | - | - |
| 1777713756 | 23.33° C | 37% | 1018.2 hPa | - | - | - | - |
* Rain since midnight (hover to see other rain measurements)
** Current wind speed in m/s (hover to see current wind gust speed)